Time;durP1;ratioP1;P1;durP2;ratioP2;P2;SDS_P1;SDS_P2;PMS_P1;PMS_P2;Temp;Humidity;BMP_temperature;BMP_pressure;BME280_temperature;BME280_humidity;BME280_pressure;Samples;Min_cycle;Max_cycle;Signal;HPM_P1;HPM_P2
2023/03/03 00:01:24;;;;;;;45.40;24.70;;;;;;;3.61;73.25;100530.59;5139669;27;20442;-76
2023/03/03 00:03:50;;;;;;;44.63;26.00;;;;;;;3.53;73.18;100534.28;5139130;27;20031;-76
2023/03/03 00:06:15;;;;;;;50.17;25.70;;;;;;;3.50;72.82;100534.66;5139401;27;20476;-76
2023/03/03 00:08:41;;;;;;;44.05;23.23;;;;;;;3.37;73.61;100530.91;5139640;27;20428;-76
2023/03/03 00:11:07;;;;;;;47.30;24.67;;;;;;;2.98;74.20;100533.09;5138614;27;20499;-75
2023/03/03 00:13:44;;;;;;;47.50;24.38;;;;;;;3.21;74.62;100544.66;5139248;27;20055;-76
2023/03/03 00:16:11;;;;;;;55.05;29.65;;;;;;;3.19;73.97;100544.03;5139022;27;20057;-75
2023/03/03 00:18:42;;;;;;;47.70;23.17;;;;;;;3.31;73.63;100547.00;5137197;27;20053;-75
2023/03/03 00:21:21;;;;;;;53.45;25.95;;;;;;;3.26;74.38;100550.28;5138580;27;20054;-76
2023/03/03 00:23:47;;;;;;;47.88;23.30;;;;;;;3.38;73.85;100548.72;5138228;27;20030;-76
2023/03/03 00:26:30;;;;;;;60.55;30.98;;;;;;;3.43;73.57;100550.00;5139076;27;20468;-76
2023/03/03 00:28:55;;;;;;;55.53;27.33;;;;;;;3.54;74.01;100546.72;5137464;27;20039;-76
2023/03/03 00:31:33;;;;;;;59.88;25.52;;;;;;;3.48;72.82;100542.97;5138922;27;20046;-76
2023/03/03 00:34:17;;;;;;;42.80;27.23;;;;;;;3.52;73.42;100547.97;5138813;27;20054;-75
2023/03/03 00:36:43;;;;;;;40.85;25.13;;;;;;;3.57;73.15;100542.81;5138995;27;20046;-76
2023/03/03 00:39:37;;;;;;;53.38;29.98;;;;;;;3.60;73.31;100543.25;5138724;27;20035;-76
2023/03/03 00:42:13;;;;;;;51.58;29.35;;;;;;;3.68;73.09;100546.81;5138129;27;20042;-76
2023/03/03 00:44:41;;;;;;;52.25;25.08;;;;;;;3.55;73.22;100548.41;5138476;27;20490;-76
2023/03/03 00:47:36;;;;;;;49.63;28.83;;;;;;;3.61;72.95;100550.31;5137604;27;20027;-76
2023/03/03 00:50:04;;;;;;;50.38;28.33;;;;;;;3.67;72.85;100548.69;5138464;27;20051;-76
2023/03/03 00:52:34;;;;;;;46.60;26.45;;;;;;;3.76;72.90;100549.34;5137763;27;20045;-76
2023/03/03 00:55:00;;;;;;;49.75;26.45;;;;;;;3.75;73.07;100558.47;5138303;27;20505;-76
2023/03/03 00:57:25;;;;;;;40.97;25.38;;;;;;;3.72;72.89;100553.47;5137216;27;20043;-76
2023/03/03 00:59:50;;;;;;;53.58;26.95;;;;;;;3.59;73.15;100549.69;5139086;27;20035;-76
2023/03/03 01:02:15;;;;;;;56.03;29.37;;;;;;;3.34;73.55;100560.94;5142677;27;20486;-75
2023/03/03 01:04:47;;;;;;;52.20;27.40;;;;;;;3.46;73.82;100555.81;5142658;27;20270;-76
2023/03/03 01:07:12;;;;;;;48.17;26.25;;;;;;;3.32;73.50;100564.84;5142384;27;20266;-76
2023/03/03 01:09:37;;;;;;;48.37;23.47;;;;;;;3.20;74.19;100562.69;5142494;27;20031;-76
2023/03/03 01:12:03;;;;;;;41.08;24.45;;;;;;;3.30;74.01;100562.34;5141704;27;20791;-76
2023/03/03 01:14:28;;;;;;;42.00;22.90;;;;;;;3.27;73.48;100551.97;5140855;27;20027;-76
2023/03/03 01:16:54;;;;;;;39.63;23.33;;;;;;;3.32;73.54;100551.34;5142467;27;20034;-76
2023/03/03 01:19:19;;;;;;;42.55;22.30;;;;;;;2.94;75.25;100557.94;5141056;27;20043;-76
2023/03/03 01:21:44;;;;;;;42.58;23.40;;;;;;;3.00;75.32;100558.00;5142159;27;20484;-75
2023/03/03 01:24:09;;;;;;;41.05;23.77;;;;;;;3.24;74.89;100555.88;5142747;27;20480;-76
2023/03/03 01:26:35;;;;;;;52.65;23.85;;;;;;;3.34;74.02;100558.22;5141362;27;20039;-76
2023/03/03 01:29:00;;;;;;;50.10;26.23;;;;;;;3.47;73.54;100562.03;5139799;27;20031;-76
2023/03/03 01:31:25;;;;;;;49.83;24.97;;;;;;;3.43;74.00;100555.38;5142684;27;20500;-76
2023/03/03 01:33:51;;;;;;;49.30;27.45;;;;;;;3.35;73.34;100556.38;5142632;27;20270;-76
2023/03/03 01:36:22;;;;;;;45.58;25.00;;;;;;;3.36;73.79;100558.88;5142074;27;20141;-76
2023/03/03 01:38:47;;;;;;;47.72;26.10;;;;;;;3.40;74.16;100561.19;5141172;27;20030;-76
2023/03/03 01:41:12;;;;;;;45.17;25.83;;;;;;;3.40;74.06;100561.19;5141453;27;20087;-76
2023/03/03 01:43:44;;;;;;;38.50;23.88;;;;;;;3.24;73.80;100557.75;5141415;27;20285;-76
2023/03/03 01:46:32;;;;;;;44.22;26.42;;;;;;;3.33;74.31;100561.13;5142136;27;20129;-76
2023/03/03 01:49:13;;;;;;;44.13;27.05;;;;;;;3.34;74.70;100563.63;5140776;27;20257;-76
2023/03/03 01:51:45;;;;;;;48.35;24.23;;;;;;;3.41;74.01;100554.75;5141227;27;20039;-76
2023/03/03 01:54:17;;;;;;;45.42;26.63;;;;;;;3.38;73.71;100548.72;5140817;27;20035;-76
2023/03/03 01:56:43;;;;;;;43.20;25.23;;;;;;;3.34;74.52;100550.13;5137615;27;20039;-75
2023/03/03 01:59:18;;;;;;;36.38;22.98;;;;;;;3.38;74.42;100559.50;5139346;27;20035;-76
2023/03/03 02:01:46;;;;;;;44.60;24.42;;;;;;;3.35;74.15;100554.53;5141232;27;20051;-76
2023/03/03 02:04:12;;;;;;;44.13;25.15;;;;;;;3.51;73.77;100552.53;5141496;27;20420;-76
2023/03/03 02:06:41;;;;;;;46.35;24.90;;;;;;;3.35;73.55;100559.91;5141075;27;20072;-76
2023/03/03 02:09:20;;;;;;;37.50;20.85;;;;;;;3.32;74.32;100562.13;5140620;27;20581;-76
2023/03/03 02:11:48;;;;;;;34.72;23.50;;;;;;;3.38;74.38;100556.81;5141358;27;20031;-75
2023/03/03 02:14:13;;;;;;;37.78;22.92;;;;;;;3.40;74.16;100555.78;5139017;27;20476;-75
2023/03/03 02:16:39;;;;;;;39.22;24.02;;;;;;;3.44;74.04;100552.47;5140102;27;20064;-76
2023/03/03 02:19:16;;;;;;;39.08;20.58;;;;;;;3.38;74.37;100548.72;5140279;27;20552;-76
2023/03/03 02:21:42;;;;;;;40.42;22.02;;;;;;;3.46;73.73;100539.63;5140427;27;20031;-76
2023/03/03 02:24:17;;;;;;;42.70;23.00;;;;;;;3.45;73.92;100526.38;5140565;27;20084;-76
2023/03/03 02:26:44;;;;;;;41.72;22.83;;;;;;;3.36;74.19;100529.22;5140906;27;20034;-76
2023/03/03 02:29:09;;;;;;;49.22;25.80;;;;;;;3.35;74.48;100524.03;5140576;27;20480;-76
2023/03/03 02:31:37;;;;;;;50.35;26.38;;;;;;;3.27;74.23;100525.81;5139657;27;20035;-75
2023/03/03 02:34:03;;;;;;;49.25;24.42;;;;;;;3.25;74.62;100527.06;5139830;27;20079;-75
2023/03/03 02:36:32;;;;;;;39.75;22.42;;;;;;;3.37;74.46;100533.59;5139767;27;20034;-76
2023/03/03 02:39:19;;;;;;;44.13;24.48;;;;;;;3.37;74.34;100546.22;5138289;27;20479;-76
2023/03/03 02:42:02;;;;;;;39.63;22.77;;;;;;;3.32;73.91;100556.75;5140583;27;20022;-76
2023/03/03 02:44:30;;;;;;;48.47;24.05;;;;;;;3.33;74.25;100561.13;5139473;27;20103;-75
2023/03/03 02:46:56;;;;;;;45.08;22.55;;;;;;;3.44;74.36;100560.56;5138914;27;20038;-76
2023/03/03 02:49:32;;;;;;;52.58;26.35;;;;;;;3.44;73.83;100562.47;5139670;27;20031;-76
2023/03/03 02:51:58;;;;;;;43.60;23.33;;;;;;;3.36;74.11;100569.66;5139885;27;20027;-75
2023/03/03 02:54:26;;;;;;;42.25;24.23;;;;;;;3.35;74.33;100565.31;5139819;27;20044;-76
2023/03/03 02:56:51;;;;;;;43.53;24.83;;;;;;;3.47;74.21;100562.03;5139492;27;20051;-75
2023/03/03 02:59:17;;;;;;;40.70;23.45;;;;;;;3.51;73.50;100552.53;5138650;27;20083;-75
2023/03/03 03:01:43;;;;;;;42.50;24.88;;;;;;;3.52;73.43;100548.78;5139936;27;20019;-75
2023/03/03 03:04:18;;;;;;;37.50;21.75;;;;;;;3.59;73.71;100549.69;5139316;27;21025;-75
2023/03/03 03:06:44;;;;;;;40.80;22.23;;;;;;;3.55;73.62;100545.72;5138775;27;20479;-75
2023/03/03 03:09:11;;;;;;;43.58;22.45;;;;;;;3.54;73.47;100541.34;5138128;27;20039;-76
2023/03/03 03:11:37;;;;;;;44.55;22.92;;;;;;;3.37;74.17;100552.47;5139391;27;20042;-75
2023/03/03 03:14:05;;;;;;;50.10;23.88;;;;;;;3.52;74.17;100547.97;5139232;27;20080;-75
2023/03/03 03:16:30;;;;;;;48.38;24.58;;;;;;;3.44;74.47;100552.47;5138823;27;20447;-76
2023/03/03 03:18:56;;;;;;;36.67;22.00;;;;;;;3.52;74.31;100547.97;5138196;27;20030;-75
2023/03/03 03:21:21;;;;;;;46.97;24.65;;;;;;;3.47;73.86;100556.66;5139168;27;20069;-75
2023/03/03 03:23:47;;;;;;;45.72;24.65;;;;;;;3.47;73.82;100553.97;5138749;27;20488;-76
2023/03/03 03:26:12;;;;;;;42.70;23.55;;;;;;;3.55;74.05;100569.97;5140203;27;20031;-76
2023/03/03 03:28:37;;;;;;;42.50;22.88;;;;;;;3.60;73.44;100578.31;5138266;27;20035;-76
2023/03/03 03:31:03;;;;;;;47.45;23.42;;;;;;;3.61;73.84;100561.09;5138887;27;20026;-76
2023/03/03 03:33:29;;;;;;;36.40;22.20;;;;;;;3.55;73.34;100566.44;5137479;27;20427;-76
2023/03/03 03:35:55;;;;;;;50.00;24.83;;;;;;;3.38;73.72;100569.44;5138428;27;20026;-76
2023/03/03 03:38:25;;;;;;;52.67;24.40;;;;;;;3.40;74.02;100561.19;5138527;27;20076;-76
2023/03/03 03:40:51;;;;;;;41.47;25.13;;;;;;;3.36;74.14;100571.50;5138034;27;20057;-76
2023/03/03 03:43:16;;;;;;;41.60;22.75;;;;;;;3.45;74.07;100566.81;5138883;27;20046;-75
2023/03/03 03:45:42;;;;;;;38.53;22.40;;;;;;;3.25;73.76;100564.81;5138816;27;20423;-76
2023/03/03 03:48:07;;;;;;;49.17;21.75;;;;;;;3.11;75.21;100566.56;5137862;27;20397;-76
2023/03/03 03:50:33;;;;;;;43.53;22.90;;;;;;;3.23;74.17;100566.88;5138405;27;20026;-75
2023/03/03 03:52:58;;;;;;;44.15;24.13;;;;;;;3.32;74.43;100583.72;5138607;27;20035;-75
2023/03/03 03:55:23;;;;;;;37.83;21.57;;;;;;;2.86;75.19;100577.75;5138446;27;20037;-76
2023/03/03 03:57:48;;;;;;;39.47;21.63;;;;;;;2.89;76.00;100578.19;5137912;27;20659;-76
2023/03/03 04:00:14;;;;;;;42.70;22.67;;;;;;;3.01;75.37;100580.38;5138651;27;20059;-76
2023/03/03 04:02:39;;;;;;;40.85;22.33;;;;;;;3.13;74.75;100584.19;5139027;27;20531;-76
2023/03/03 04:05:06;;;;;;;40.22;20.33;;;;;;;3.22;74.15;100584.91;5138626;27;20030;-76
2023/03/03 04:07:31;;;;;;;46.35;19.60;;;;;;;3.24;74.16;100590.09;5135947;27;20031;-76
2023/03/03 04:09:56;;;;;;;39.88;20.08;;;;;;;3.24;74.23;100587.38;5138647;27;20023;-76
2023/03/03 04:12:22;;;;;;;49.22;22.75;;;;;;;3.27;74.65;100595.09;5138407;27;20376;-76
2023/03/03 04:14:47;;;;;;;37.38;20.25;;;;;;;3.37;74.13;100595.59;5138330;27;20402;-76
2023/03/03 04:17:20;;;;;;;42.90;21.92;;;;;;;3.37;74.50;100582.13;5138617;27;20484;-76
2023/03/03 04:19:46;;;;;;;51.35;23.45;;;;;;;3.40;74.33;100577.34;5138463;27;20375;-76
2023/03/03 04:22:12;;;;;;;51.42;23.40;;;;;;;3.42;73.72;100584.19;5138838;27;20038;-76
2023/03/03 04:24:38;;;;;;;48.60;25.48;;;;;;;3.46;74.12;100587.31;5138585;27;20036;-75
2023/03/03 04:27:04;;;;;;;47.70;25.13;;;;;;;3.09;74.69;100595.56;5139358;27;20084;-76
2023/03/03 04:29:29;;;;;;;53.28;28.73;;;;;;;3.20;75.52;100591.50;5138280;27;20031;-75
2023/03/03 04:31:55;;;;;;;49.75;28.00;;;;;;;3.28;74.79;100585.97;5138210;27;20034;-76
2023/03/03 04:34:20;;;;;;;52.47;27.23;;;;;;;3.36;74.89;100588.53;5138652;27;20114;-76
2023/03/03 04:36:45;;;;;;;63.13;28.33;;;;;;;3.44;74.25;100589.41;5142460;27;20080;-76
2023/03/03 04:39:11;;;;;;;39.42;25.52;;;;;;;3.35;74.48;100588.72;5142418;27;20114;-75
2023/03/03 04:41:36;;;;;;;49.10;25.42;;;;;;;3.33;74.34;100593.47;5142023;27;20052;-76
2023/03/03 04:44:01;;;;;;;51.87;24.67;;;;;;;3.30;74.21;100586.59;5142054;27;20023;-75
2023/03/03 04:46:27;;;;;;;40.88;23.38;;;;;;;3.32;73.29;100589.94;5140199;27;20285;-76
2023/03/03 04:48:52;;;;;;;53.25;25.45;;;;;;;3.15;74.47;100586.72;5141798;27;20375;-76
2023/03/03 04:51:17;;;;;;;43.08;22.40;;;;;;;3.18;73.89;100596.25;5142205;27;20468;-76
2023/03/03 04:53:43;;;;;;;46.80;27.30;;;;;;;2.98;74.91;100583.44;5141390;27;20263;-75
2023/03/03 04:56:08;;;;;;;58.75;25.08;;;;;;;2.89;75.29;100588.97;5140961;27;20066;-76
2023/03/03 04:58:33;;;;;;;50.78;26.52;;;;;;;2.84;75.79;100596.81;5141393;27;20388;-76
2023/03/03 05:00:59;;;;;;;51.53;26.38;;;;;;;3.04;75.59;100601.53;5142923;27;20126;-76
2023/03/03 05:03:25;;;;;;;48.22;26.60;;;;;;;3.12;74.49;100587.09;5140379;27;20480;-76
2023/03/03 05:05:51;;;;;;;51.83;27.27;;;;;;;3.20;74.79;100594.19;5143636;27;20035;-76
2023/03/03 05:08:17;;;;;;;47.40;26.13;;;;;;;3.28;74.35;100594.06;5140416;27;20073;-76
2023/03/03 05:10:43;;;;;;;41.33;23.80;;;;;;;3.22;74.16;100584.91;5140883;27;20031;-75
2023/03/03 05:13:08;;;;;;;45.25;22.42;;;;;;;3.27;74.24;100587.00;5140251;27;20038;-75
2023/03/03 05:15:34;;;;;;;44.03;24.55;;;;;;;3.07;74.68;100593.06;5140774;27;20314;-76
2023/03/03 05:17:59;;;;;;;47.53;22.13;;;;;;;2.96;75.37;100583.66;5137795;27;20029;-76
2023/03/03 05:20:25;;;;;;;43.25;23.00;;;;;;;3.03;75.20;100581.03;5139269;27;20031;-76
2023/03/03 05:22:50;;;;;;;51.00;23.08;;;;;;;3.05;74.44;100595.13;5139504;27;20106;-75
2023/03/03 05:25:16;;;;;;;35.30;20.73;;;;;;;2.99;75.06;100593.22;5140765;27;20057;-75
2023/03/03 05:27:42;;;;;;;39.20;20.02;;;;;;;3.12;74.76;100581.69;5139981;27;20095;-75
2023/03/03 05:30:08;;;;;;;42.67;20.70;;;;;;;3.01;74.67;100580.38;5139836;27;20414;-76
2023/03/03 05:32:34;;;;;;;44.65;25.27;;;;;;;3.03;75.03;100586.41;5139451;27;20455;-76
2023/03/03 05:35:00;;;;;;;35.97;19.35;;;;;;;3.17;74.46;100592.75;5139816;27;20023;-75
2023/03/03 05:37:25;;;;;;;45.47;23.10;;;;;;;3.19;74.21;100593.38;5138674;27;20071;-75
2023/03/03 05:39:50;;;;;;;34.47;19.52;;;;;;;3.23;74.51;100577.66;5138480;27;20247;-76
2023/03/03 05:42:15;;;;;;;37.93;20.33;;;;;;;3.25;74.18;100589.06;5140990;27;20031;-75
2023/03/03 05:44:41;;;;;;;42.80;19.53;;;;;;;3.12;74.11;100592.47;5141368;27;20259;-76
2023/03/03 05:47:06;;;;;;;40.83;21.67;;;;;;;3.09;74.36;100596.38;5140788;27;20595;-76
2023/03/03 05:49:32;;;;;;;43.92;21.08;;;;;;;3.16;74.39;100593.75;5140996;27;20026;-75
2023/03/03 05:51:58;;;;;;;30.63;17.48;;;;;;;3.26;74.31;100590.72;5141032;27;20023;-76
2023/03/03 05:54:23;;;;;;;40.67;20.83;;;;;;;3.17;73.67;100598.13;5140936;27;20057;-76
2023/03/03 05:56:48;;;;;;;39.70;24.23;;;;;;;2.79;74.89;100588.47;5140792;27;20054;-75
2023/03/03 05:59:14;;;;;;;39.67;22.40;;;;;;;2.84;74.80;100595.97;5140541;27;20106;-75
2023/03/03 06:01:39;;;;;;;34.25;19.95;;;;;;;2.98;74.06;100596.91;5140863;27;20243;-76
2023/03/03 06:04:04;;;;;;;40.35;20.00;;;;;;;2.99;74.41;100604.00;5140756;27;20301;-75
2023/03/03 06:06:30;;;;;;;46.00;23.10;;;;;;;3.04;74.29;100604.22;5141804;27;20118;-75
2023/03/03 06:08:55;;;;;;;43.45;20.85;;;;;;;3.09;73.67;100604.47;5140881;27;20726;-76
2023/03/03 06:11:20;;;;;;;39.33;21.43;;;;;;;3.00;74.16;100601.09;5140553;27;20027;-76
2023/03/03 06:13:45;;;;;;;40.77;21.37;;;;;;;3.13;74.75;100611.13;5139732;27;20637;-76
2023/03/03 06:16:11;;;;;;;42.50;20.20;;;;;;;3.10;74.51;100611.53;5141054;27;20302;-75
2023/03/03 06:18:36;;;;;;;36.17;18.87;;;;;;;3.27;73.66;100613.97;5139486;27;20066;-76
2023/03/03 06:21:01;;;;;;;40.08;18.52;;;;;;;3.25;73.51;100618.72;5140948;27;20378;-76
2023/03/03 06:23:26;;;;;;;37.40;19.90;;;;;;;3.18;73.37;100628.59;5140262;27;20460;-76
2023/03/03 06:25:52;;;;;;;39.03;20.70;;;;;;;3.14;74.04;100633.53;5140370;27;20519;-76
2023/03/03 06:28:18;;;;;;;30.92;18.75;;;;;;;3.23;73.97;100639.63;5139570;27;20428;-76
2023/03/03 06:30:43;;;;;;;34.85;18.13;;;;;;;3.17;73.77;100637.72;5140287;27;20135;-76
2023/03/03 06:33:08;;;;;;;37.28;19.55;;;;;;;3.08;74.01;100628.94;5140328;27;20019;-76
2023/03/03 06:35:33;;;;;;;37.47;20.27;;;;;;;3.11;74.41;100623.97;5140817;27;20121;-76
2023/03/03 06:37:59;;;;;;;38.42;21.02;;;;;;;3.00;74.29;100627.19;5139348;27;20057;-76
2023/03/03 06:40:24;;;;;;;39.50;20.08;;;;;;;3.07;74.63;100630.78;5139658;27;20031;-76
2023/03/03 06:42:49;;;;;;;36.67;17.55;;;;;;;3.08;73.88;100624.38;5140755;27;20054;-76
2023/03/03 06:45:15;;;;;;;35.03;19.23;;;;;;;3.17;74.11;100637.72;5140480;27;20042;-76
2023/03/03 06:47:41;;;;;;;35.35;20.58;;;;;;;3.18;73.59;100634.81;5140075;27;20257;-75
2023/03/03 06:50:07;;;;;;;36.22;18.63;;;;;;;3.23;74.06;100643.19;5139134;27;20023;-76
2023/03/03 06:52:32;;;;;;;28.83;16.75;;;;;;;3.21;74.13;100650.63;5138476;27;20030;-75
2023/03/03 06:55:00;;;;;;;39.57;19.70;;;;;;;3.16;74.26;100658.44;5140568;27;20030;-75
2023/03/03 06:57:31;;;;;;;39.03;18.17;;;;;;;2.99;73.94;100658.69;5139105;27;20373;-75
2023/03/03 07:00:11;;;;;;;37.85;18.13;;;;;;;3.12;74.27;100654.47;5138850;27;20275;-76
2023/03/03 07:02:36;;;;;;;34.22;21.75;;;;;;;3.31;74.01;100654.84;5138925;27;20056;-75
2023/03/03 07:05:04;;;;;;;33.20;16.87;;;;;;;3.34;73.65;100654.44;5139851;27;20397;-75
2023/03/03 07:07:30;;;;;;;30.00;16.55;;;;;;;3.29;73.89;100657.72;5139224;27;20308;-76
2023/03/03 07:09:55;;;;;;;34.42;17.13;;;;;;;3.29;73.89;100652.34;5139449;27;20023;-76
2023/03/03 07:12:24;;;;;;;40.35;18.55;;;;;;;3.38;73.30;100656.56;5139857;27;20122;-76
2023/03/03 07:15:14;;;;;;;34.17;17.58;;;;;;;3.37;73.04;100654.91;5139457;27;20023;-76
2023/03/03 07:17:44;;;;;;;35.95;17.60;;;;;;;3.31;73.59;100655.69;5139184;27;20039;-76
2023/03/03 07:20:20;;;;;;;33.45;16.55;;;;;;;3.31;73.56;100661.06;5138389;27;20031;-75
2023/03/03 07:22:46;;;;;;;28.83;15.55;;;;;;;3.40;73.70;100659.06;5138311;27;20494;-76
2023/03/03 07:25:34;;;;;;;35.92;17.17;;;;;;;3.32;73.57;100673.50;5139391;27;20022;-76
2023/03/03 07:28:13;;;;;;;35.13;17.73;;;;;;;3.46;73.76;100673.59;5138611;27;20061;-76
2023/03/03 07:30:39;;;;;;;33.70;18.08;;;;;;;3.34;73.78;100682.25;5139180;27;20067;-76
2023/03/03 07:33:17;;;;;;;31.13;16.63;;;;;;;3.36;73.35;100680.19;5138477;27;20027;-76
2023/03/03 07:35:43;;;;;;;29.77;14.07;;;;;;;3.30;72.84;100680.94;5138881;27;20053;-75
2023/03/03 07:38:29;;;;;;;24.40;13.27;;;;;;;3.34;72.96;100684.09;5138863;27;20420;-75
2023/03/03 07:40:57;;;;;;;26.55;14.52;;;;;;;3.34;73.01;100697.56;5136201;27;20109;-75
2023/03/03 07:43:30;;;;;;;32.63;14.25;;;;;;;3.27;72.18;100700.22;5138591;27;20040;-75
2023/03/03 07:46:20;;;;;;;27.95;16.27;;;;;;;3.33;73.05;100702.16;5138678;27;20499;-76
2023/03/03 07:48:45;;;;;;;26.63;12.90;;;;;;;3.28;72.77;100709.97;5136752;27;20047;-76
2023/03/03 07:51:24;;;;;;;24.20;14.32;;;;;;;3.31;72.51;100708.75;5139829;27;20083;-76
2023/03/03 07:53:51;;;;;;;25.13;15.38;;;;;;;3.40;72.34;100706.78;5139458;27;20030;-76
2023/03/03 07:56:33;;;;;;;26.20;15.45;;;;;;;3.07;72.24;100703.53;5137719;27;20426;-76
2023/03/03 07:59:06;;;;;;;31.77;14.77;;;;;;;3.26;72.64;100722.78;5137225;27;20054;-77
2023/03/03 08:01:41;;;;;;;25.55;13.88;;;;;;;3.32;72.57;100718.50;5138399;27;20031;-77
2023/03/03 08:04:49;;;;;;;29.90;15.40;;;;;;;3.35;72.59;100716.28;5139200;27;20101;-76
2023/03/03 08:07:17;;;;;;;31.17;15.25;;;;;;;3.35;72.41;100715.44;5138946;27;20027;-76
2023/03/03 08:09:48;;;;;;;28.33;14.90;;;;;;;3.40;72.98;100722.94;5138756;27;20042;-76
2023/03/03 08:12:32;;;;;;;27.85;14.55;;;;;;;3.34;72.14;100714.59;5139020;27;20515;-75
2023/03/03 08:15:14;;;;;;;42.17;17.40;;;;;;;3.34;72.00;100716.44;5139280;27;20369;-76
2023/03/03 08:17:41;;;;;;;36.40;17.17;;;;;;;3.34;72.50;100729.91;5138196;27;20027;-76
2023/03/03 08:20:33;;;;;;;34.83;16.15;;;;;;;3.36;71.94;100728.72;5138421;27;20059;-76
2023/03/03 08:22:58;;;;;;;35.30;17.67;;;;;;;3.36;71.86;100731.41;5127277;27;20039;-76
2023/03/03 08:25:23;;;;;;;30.10;15.50;;;;;;;3.35;72.08;100731.59;5138290;27;20027;-76
2023/03/03 08:27:49;;;;;;;38.27;17.60;;;;;;;3.29;71.78;100733.22;5138153;27;20851;-76
2023/03/03 08:30:14;;;;;;;34.08;17.90;;;;;;;3.25;72.65;100738.13;5139545;27;20271;-75
2023/03/03 08:32:39;;;;;;;31.77;14.82;;;;;;;3.27;71.93;100736.06;5138053;27;20027;-75
2023/03/03 08:35:05;;;;;;;33.53;17.40;;;;;;;3.34;71.90;100738.84;5139677;27;20035;-75
2023/03/03 08:37:30;;;;;;;27.17;15.27;;;;;;;3.39;72.23;100738.28;5136806;27;20242;-77
2023/03/03 08:39:55;;;;;;;32.37;15.63;;;;;;;3.36;71.87;100742.19;5135747;27;20038;-76
2023/03/03 08:42:20;;;;;;;38.50;17.87;;;;;;;3.42;71.71;100747.84;5137940;27;20700;-76
2023/03/03 08:44:46;;;;;;;33.03;18.23;;;;;;;3.36;71.87;100741.34;5137810;27;20263;-76
2023/03/03 08:47:11;;;;;;;35.90;16.70;;;;;;;3.40;71.95;100744.50;5137726;27;20266;-76
2023/03/03 08:49:36;;;;;;;45.00;17.65;;;;;;;3.38;71.42;100742.84;5135677;27;20277;-76
2023/03/03 08:52:02;;;;;;;36.17;19.10;;;;;;;3.45;71.62;100744.75;5138883;27;20034;-77
2023/03/03 08:54:28;;;;;;;40.72;20.48;;;;;;;3.36;72.02;100752.13;5137406;27;20643;-76
2023/03/03 08:56:53;;;;;;;33.05;19.13;;;;;;;3.50;71.64;100753.94;5138160;27;20119;-76
2023/03/03 08:59:19;;;;;;;43.67;21.47;;;;;;;3.64;71.83;100755.94;5136889;27;20038;-76
2023/03/03 09:01:44;;;;;;;39.92;25.98;;;;;;;3.52;70.88;100764.50;5137337;27;20335;-76
2023/03/03 09:04:10;;;;;;;41.78;22.65;;;;;;;3.45;71.64;100763.63;5136310;27;20463;-76
2023/03/03 09:06:35;;;;;;;35.75;18.30;;;;;;;3.29;70.80;100760.16;5137503;27;20084;-76
2023/03/03 09:09:00;;;;;;;43.03;20.30;;;;;;;3.39;71.58;100765.25;5134946;27;20031;-76
2023/03/03 09:11:28;;;;;;;38.58;20.52;;;;;;;3.55;71.30;100764.16;5136611;27;20259;-75
2023/03/03 09:14:01;;;;;;;35.83;21.48;;;;;;;3.60;70.85;100763.56;5136648;27;20578;-76
2023/03/03 09:16:31;;;;;;;47.42;26.80;;;;;;;3.51;71.48;100770.94;5136758;27;20035;-76
2023/03/03 09:18:57;;;;;;;52.58;31.10;;;;;;;3.48;71.45;100765.94;5137084;27;20075;-75
2023/03/03 09:21:31;;;;;;;63.20;32.13;;;;;;;3.48;70.83;100768.63;5137251;27;20023;-77
2023/03/03 09:23:59;;;;;;;;;;;;;;;3.56;71.20;100770.38;5141601;27;20035;-76
2023/03/03 09:26:47;;;;;;;75.60;30.35;;;;;;;3.68;70.69;100768.81;5141443;27;19911;-75
2023/03/03 09:29:27;;;;;;;54.03;26.92;;;;;;;3.67;70.37;100767.16;5141387;27;20062;-76
2023/03/03 09:31:55;;;;;;;58.55;31.80;;;;;;;3.79;71.42;100770.16;5141676;27;20099;-77
2023/03/03 09:34:37;;;;;;;50.47;26.55;;;;;;;3.85;70.19;100773.94;5141158;27;20324;-76
2023/03/03 09:37:22;;;;;;;54.10;23.95;;;;;;;3.83;70.11;100770.59;5140516;27;20075;-77
2023/03/03 09:39:51;;;;;;;47.10;25.75;;;;;;;3.85;69.81;100769.38;5140898;27;20035;-76
2023/03/03 09:42:37;;;;;;;51.45;24.17;;;;;;;3.87;70.30;100782.66;5140484;27;20479;-75
2023/03/03 09:45:19;;;;;;;59.83;27.98;;;;;;;3.84;70.24;100777.69;5141832;27;20038;-77
2023/03/03 09:48:12;;;;;;;63.17;28.20;;;;;;;3.88;70.29;100778.13;5138671;27;20481;-77
2023/03/03 09:50:47;;;;;;;65.97;33.58;;;;;;;3.84;70.51;100783.88;5139987;27;20035;-77
2023/03/03 09:53:35;;;;;;;105.25;41.25;;;;;;;3.83;69.76;100789.47;5141452;27;20030;-76
2023/03/03 09:56:06;;;;;;;75.97;33.78;;;;;;;3.89;69.91;100782.47;5140921;27;20282;-76
2023/03/03 09:59:03;;;;;;;82.93;41.20;;;;;;;3.99;70.02;100788.38;5139837;27;20031;-77
2023/03/03 10:02:06;;;;;;;91.82;47.53;;;;;;;4.00;69.36;100787.34;5139750;27;20031;-76
2023/03/03 10:04:59;;;;;;;64.63;30.88;;;;;;;3.96;69.14;100791.47;5141099;27;20487;-77
2023/03/03 10:07:54;;;;;;;57.70;27.00;;;;;;;4.04;69.32;100795.88;5141325;27;20167;-76
2023/03/03 10:10:49;;;;;;;50.30;27.17;;;;;;;3.89;69.18;100790.56;5115038;27;20046;-76
2023/03/03 10:13:30;;;;;;;61.25;28.85;;;;;;;3.83;69.17;100805.66;5117208;27;20103;-76
2023/03/03 10:16:01;;;;;;;63.60;29.65;;;;;;;3.87;70.11;100806.09;5117382;27;20035;-76
2023/03/03 10:18:41;;;;;;;52.28;25.88;;;;;;;4.00;69.58;100814.34;5115479;27;20063;-76
2023/03/03 10:21:16;;;;;;;56.17;31.35;;;;;;;4.06;69.42;100810.03;5117466;27;20036;-76
2023/03/03 10:24:01;;;;;;;52.20;23.98;;;;;;;4.07;68.58;100801.72;5116870;27;20032;-76
2023/03/03 10:26:33;;;;;;;45.30;25.10;;;;;;;4.11;69.50;100801.34;5118357;27;20034;-76
2023/03/03 10:29:19;;;;;;;44.15;24.05;;;;;;;4.15;69.16;100805.31;5115643;27;20052;-77
2023/03/03 10:31:56;;;;;;;64.13;24.10;;;;;;;4.25;68.99;100800.38;5114256;27;20390;-77
2023/03/03 10:34:30;;;;;;;39.38;21.92;;;;;;;4.18;68.70;100804.91;5116889;27;20040;-77
2023/03/03 10:37:14;;;;;;;43.95;23.33;;;;;;;4.04;68.85;100804.81;5117041;27;20395;-76
2023/03/03 10:39:58;;;;;;;44.57;20.30;;;;;;;4.16;68.55;100807.81;5115972;27;20040;-76
2023/03/03 10:42:32;;;;;;;41.78;21.63;;;;;;;4.14;68.62;100819.84;5116357;27;20591;-75
2023/03/03 10:45:06;;;;;;;;;;;;;;;4.18;68.05;100810.31;5116845;27;20118;-76
2023/03/03 10:48:15;;;;;;;37.45;19.33;;;;;;;4.30;68.67;100805.22;5124254;27;19938;-76
2023/03/03 10:50:50;;;;;;;40.65;20.58;;;;;;;4.26;68.92;100807.47;5139556;27;20034;-76
2023/03/03 10:53:33;;;;;;;34.42;18.13;;;;;;;4.27;68.36;100809.13;5139221;27;20034;-77
2023/03/03 10:56:27;;;;;;;43.58;23.30;;;;;;;4.41;68.17;100814.63;5140659;27;20042;-77
2023/03/03 10:59:14;;;;;;;45.47;21.93;;;;;;;4.35;67.75;100804.63;5098391;28;20077;-77
2023/03/03 11:01:50;;;;;;;45.15;22.05;;;;;;;4.41;68.63;100806.53;5097632;28;20118;-76
2023/03/03 11:04:22;;;;;;;55.70;25.55;;;;;;;4.36;68.64;100812.53;5098614;28;20036;-76
2023/03/03 11:07:02;;;;;;;83.03;27.30;;;;;;;4.23;68.49;100810.53;5099162;28;20032;-78
2023/03/03 11:09:39;;;;;;;50.17;25.20;;;;;;;4.42;68.65;100816.28;5098318;28;20382;-77
2023/03/03 11:12:30;;;;;;;50.85;22.45;;;;;;;4.50;68.12;100815.28;5099495;28;20040;-77
2023/03/03 11:15:26;;;;;;;49.20;23.85;;;;;;;4.49;67.94;100817.19;5099719;28;20389;-77
2023/03/03 11:18:14;;;;;;;62.80;25.42;;;;;;;4.46;68.06;100817.56;5096528;28;20060;-76
2023/03/03 11:21:05;;;;;;;43.53;24.27;;;;;;;4.49;68.15;100817.19;5097716;28;20117;-75
2023/03/03 11:24:08;;;;;;;44.83;24.73;;;;;;;4.52;67.68;100810.53;5097578;28;20111;-77
2023/03/03 11:26:57;;;;;;;57.38;22.40;;;;;;;4.56;67.72;100809.09;5096801;28;20145;-76
2023/03/03 11:29:37;;;;;;;38.85;19.98;;;;;;;4.50;68.38;100808.03;5096723;28;20538;-76
2023/03/03 11:32:31;;;;;;;37.20;19.63;;;;;;;4.57;67.93;100801.84;5097599;28;20032;-75
2023/03/03 11:35:21;;;;;;;53.03;22.55;;;;;;;4.52;67.56;100800.56;5098577;28;20034;-77